sensor_id;sensor_type;location;lat;lon;timestamp;pressure;altitude;pressure_sealevel;temperature;humidity
6094;BME280;19964;42.060;24.700;2023-06-22T00:01:16;97758.75;;;21.28;75.09
6094;BME280;19964;42.060;24.700;2023-06-22T00:03:43;97658.78;;;20.63;75.64
6094;BME280;19964;42.060;24.700;2023-06-22T00:06:10;97767.16;;;21.31;76.20
6094;BME280;19964;42.060;24.700;2023-06-22T00:08:37;97769.47;;;21.51;75.35
6094;BME280;19964;42.060;24.700;2023-06-22T00:11:06;97774.38;;;21.57;75.21
6094;BME280;19964;42.060;24.700;2023-06-22T00:13:33;97779.63;;;21.57;74.70
6094;BME280;19964;42.060;24.700;2023-06-22T00:16:00;97788.25;;;21.81;73.48
6094;BME280;19964;42.060;24.700;2023-06-22T00:18:27;97785.59;;;21.49;75.20
6094;BME280;19964;42.060;24.700;2023-06-22T00:20:56;97783.31;;;21.43;75.42
6094;BME280;19964;42.060;24.700;2023-06-22T00:23:26;97788.94;;;21.36;76.00
6094;BME280;19964;42.060;24.700;2023-06-22T00:25:53;97792.03;;;21.06;78.08
6094;BME280;19964;42.060;24.700;2023-06-22T00:28:21;97790.47;;;21.23;77.98
6094;BME280;19964;42.060;24.700;2023-06-22T00:30:48;97800.22;;;21.23;76.68
6094;BME280;19964;42.060;24.700;2023-06-22T00:33:15;97805.78;;;20.98;79.10
6094;BME280;19964;42.060;24.700;2023-06-22T00:35:42;97809.38;;;21.07;79.29
6094;BME280;19964;42.060;24.700;2023-06-22T00:38:08;97799.81;;;20.92;79.46
6094;BME280;19964;42.060;24.700;2023-06-22T00:40:36;97804.56;;;20.90;79.10
6094;BME280;19964;42.060;24.700;2023-06-22T00:43:05;97805.63;;;20.71;79.93
6094;BME280;19964;42.060;24.700;2023-06-22T00:45:33;97807.84;;;20.59;80.81
6094;BME280;19964;42.060;24.700;2023-06-22T00:48:00;97808.44;;;20.56;81.52
6094;BME280;19964;42.060;24.700;2023-06-22T00:50:30;97781.84;;;20.28;82.46
6094;BME280;19964;42.060;24.700;2023-06-22T00:53:03;97812.06;;;20.36;83.16
6094;BME280;19964;42.060;24.700;2023-06-22T00:55:33;97807.91;;;20.30;83.55
6094;BME280;19964;42.060;24.700;2023-06-22T00:58:03;97808.31;;;20.18;84.12
6094;BME280;19964;42.060;24.700;2023-06-22T01:00:33;97788.25;;;20.17;83.97
6094;BME280;19964;42.060;24.700;2023-06-22T01:03:01;97801.06;;;20.29;84.23
6094;BME280;19964;42.060;24.700;2023-06-22T01:05:28;97798.66;;;20.32;83.57
6094;BME280;19964;42.060;24.700;2023-06-22T01:08:04;97782.94;;;20.27;83.60
6094;BME280;19964;42.060;24.700;2023-06-22T01:10:38;97793.88;;;20.39;83.56
6094;BME280;19964;42.060;24.700;2023-06-22T01:13:16;97792.34;;;20.33;84.02
6094;BME280;19964;42.060;24.700;2023-06-22T01:15:51;97788.19;;;20.27;84.30
6094;BME280;19964;42.060;24.700;2023-06-22T01:18:21;97786.84;;;20.30;84.32
6094;BME280;19964;42.060;24.700;2023-06-22T01:20:52;97787.75;;;20.20;85.23
6094;BME280;19964;42.060;24.700;2023-06-22T01:23:27;97781.91;;;20.23;85.11
6094;BME280;19964;42.060;24.700;2023-06-22T01:26:04;97782.00;;;20.18;85.32
6094;BME280;19964;42.060;24.700;2023-06-22T01:28:41;97775.25;;;20.31;84.67
6094;BME280;19964;42.060;24.700;2023-06-22T01:31:10;97788.31;;;20.41;84.33
6094;BME280;19964;42.060;24.700;2023-06-22T01:33:44;97788.41;;;20.55;83.65
6094;BME280;19964;42.060;24.700;2023-06-22T01:36:12;97791.94;;;20.45;83.85
6094;BME280;19964;42.060;24.700;2023-06-22T01:38:40;97783.47;;;20.48;83.91
6094;BME280;19964;42.060;24.700;2023-06-22T01:41:08;97781.19;;;20.42;84.69
6094;BME280;19964;42.060;24.700;2023-06-22T01:43:38;97781.69;;;20.20;86.04
6094;BME280;19964;42.060;24.700;2023-06-22T01:46:05;97753.09;;;19.85;87.06
6094;BME280;19964;42.060;24.700;2023-06-22T01:48:32;97776.06;;;20.03;87.59
6094;BME280;19964;42.060;24.700;2023-06-22T01:50:59;97773.09;;;20.09;87.63
6094;BME280;19964;42.060;24.700;2023-06-22T01:53:26;97775.78;;;20.04;87.74
6094;BME280;19964;42.060;24.700;2023-06-22T01:55:55;97764.34;;;19.90;88.87
6094;BME280;19964;42.060;24.700;2023-06-22T01:58:25;97774.53;;;19.97;89.09
6094;BME280;19964;42.060;24.700;2023-06-22T02:00:58;97784.13;;;19.83;89.72
6094;BME280;19964;42.060;24.700;2023-06-22T02:03:32;97776.19;;;19.88;89.60
6094;BME280;19964;42.060;24.700;2023-06-22T02:06:05;97771.03;;;19.78;89.59
6094;BME280;19964;42.060;24.700;2023-06-22T02:08:40;97796.09;;;19.99;89.38
6094;BME280;19964;42.060;24.700;2023-06-22T02:11:09;97793.78;;;19.92;89.19
6094;BME280;19964;42.060;24.700;2023-06-22T02:13:37;97798.53;;;19.90;89.74
6094;BME280;19964;42.060;24.700;2023-06-22T02:16:13;97794.47;;;20.03;89.30
6094;BME280;19964;42.060;24.700;2023-06-22T02:18:46;97782.00;;;20.13;88.85
6094;BME280;19964;42.060;24.700;2023-06-22T02:21:16;97763.66;;;20.03;89.43
6094;BME280;19964;42.060;24.700;2023-06-22T02:23:43;97777.94;;;19.97;90.01
6094;BME280;19964;42.060;24.700;2023-06-22T02:26:10;97766.81;;;19.77;90.77
6094;BME280;19964;42.060;24.700;2023-06-22T02:28:37;97782.41;;;19.68;92.19
6094;BME280;19964;42.060;24.700;2023-06-22T02:31:04;97780.41;;;19.55;92.62
6094;BME280;19964;42.060;24.700;2023-06-22T02:33:32;97790.94;;;19.55;93.17
6094;BME280;19964;42.060;24.700;2023-06-22T02:35:59;97794.50;;;19.69;92.46
6094;BME280;19964;42.060;24.700;2023-06-22T02:38:30;97773.84;;;19.58;92.49
6094;BME280;19964;42.060;24.700;2023-06-22T02:40:59;97777.78;;;19.55;92.05
6094;BME280;19964;42.060;24.700;2023-06-22T02:43:26;97795.13;;;19.56;92.39
6094;BME280;19964;42.060;24.700;2023-06-22T02:45:53;97807.34;;;19.76;91.82
6094;BME280;19964;42.060;24.700;2023-06-22T02:48:22;97806.91;;;19.64;92.13
6094;BME280;19964;42.060;24.700;2023-06-22T02:50:50;97796.16;;;19.60;91.61
6094;BME280;19964;42.060;24.700;2023-06-22T02:53:17;97804.56;;;19.57;92.04
6094;BME280;19964;42.060;24.700;2023-06-22T02:55:44;97811.44;;;19.58;91.62
6094;BME280;19964;42.060;24.700;2023-06-22T02:58:10;97811.44;;;19.58;91.63
6094;BME280;19964;42.060;24.700;2023-06-22T03:00:37;97805.66;;;19.51;92.26
6094;BME280;19964;42.060;24.700;2023-06-22T03:03:04;97808.81;;;19.53;92.31
6094;BME280;19964;42.060;24.700;2023-06-22T03:05:31;97812.53;;;19.47;92.93
6094;BME280;19964;42.060;24.700;2023-06-22T03:08:02;97814.81;;;19.59;93.35
6094;BME280;19964;42.060;24.700;2023-06-22T03:10:30;97812.41;;;19.67;92.17
6094;BME280;19964;42.060;24.700;2023-06-22T03:12:56;97814.97;;;19.72;90.97
6094;BME280;19964;42.060;24.700;2023-06-22T03:15:23;97817.72;;;19.91;90.22
6094;BME280;19964;42.060;24.700;2023-06-22T03:17:51;97806.38;;;19.95;89.19
6094;BME280;19964;42.060;24.700;2023-06-22T03:20:17;97810.41;;;20.16;88.68
6094;BME280;19964;42.060;24.700;2023-06-22T03:22:44;97828.75;;;20.26;87.69
6094;BME280;19964;42.060;24.700;2023-06-22T03:25:13;97825.31;;;20.26;88.36
6094;BME280;19964;42.060;24.700;2023-06-22T03:27:40;97822.47;;;20.22;88.21
6094;BME280;19964;42.060;24.700;2023-06-22T03:30:08;97827.59;;;20.32;87.33
6094;BME280;19964;42.060;24.700;2023-06-22T03:32:36;97829.84;;;20.44;87.04
6094;BME280;19964;42.060;24.700;2023-06-22T03:35:03;97831.88;;;20.52;85.77
6094;BME280;19964;42.060;24.700;2023-06-22T03:37:31;97821.53;;;20.61;85.75
6094;BME280;19964;42.060;24.700;2023-06-22T03:39:58;97831.44;;;20.69;85.21
6094;BME280;19964;42.060;24.700;2023-06-22T03:42:27;97834.06;;;20.92;84.16
6094;BME280;19964;42.060;24.700;2023-06-22T03:44:54;97831.34;;;21.21;83.11
6094;BME280;19964;42.060;24.700;2023-06-22T03:47:21;97843.31;;;21.51;81.71
6094;BME280;19964;42.060;24.700;2023-06-22T03:49:49;97838.94;;;21.60;82.14
6094;BME280;19964;42.060;24.700;2023-06-22T03:52:20;97837.25;;;21.69;81.78
6094;BME280;19964;42.060;24.700;2023-06-22T03:54:47;97822.97;;;21.70;80.80
6094;BME280;19964;42.060;24.700;2023-06-22T03:57:14;97836.28;;;21.97;80.96
6094;BME280;19964;42.060;24.700;2023-06-22T03:59:42;97835.28;;;22.25;80.07
6094;BME280;19964;42.060;24.700;2023-06-22T04:02:09;97820.41;;;22.29;79.47
6094;BME280;19964;42.060;24.700;2023-06-22T04:04:38;97758.03;;;22.20;79.12
6094;BME280;19964;42.060;24.700;2023-06-22T04:07:05;97827.56;;;22.96;77.03
6094;BME280;19964;42.060;24.700;2023-06-22T04:09:32;97829.38;;;23.23;77.46
6094;BME280;19964;42.060;24.700;2023-06-22T04:11:59;97833.06;;;23.49;75.85
6094;BME280;19964;42.060;24.700;2023-06-22T04:14:26;97813.22;;;23.38;73.89
6094;BME280;19964;42.060;24.700;2023-06-22T04:16:56;97826.44;;;23.38;73.80
6094;BME280;19964;42.060;24.700;2023-06-22T04:19:22;97816.13;;;23.01;74.27
6094;BME280;19964;42.060;24.700;2023-06-22T04:21:49;97828.69;;;23.18;74.26
6094;BME280;19964;42.060;24.700;2023-06-22T04:24:16;97791.47;;;23.28;73.93
6094;BME280;19964;42.060;24.700;2023-06-22T04:26:43;97849.13;;;23.53;75.51
6094;BME280;19964;42.060;24.700;2023-06-22T04:29:12;97863.78;;;23.59;75.10
6094;BME280;19964;42.060;24.700;2023-06-22T04:31:39;97624.22;;;22.42;73.57
6094;BME280;19964;42.060;24.700;2023-06-22T04:34:08;97850.50;;;23.95;72.72
6094;BME280;19964;42.060;24.700;2023-06-22T04:36:36;97849.28;;;24.23;71.73
6094;BME280;19964;42.060;24.700;2023-06-22T04:39:07;97851.28;;;24.48;71.27
6094;BME280;19964;42.060;24.700;2023-06-22T04:41:35;97853.97;;;24.56;70.61
6094;BME280;19964;42.060;24.700;2023-06-22T04:44:11;97848.47;;;24.44;70.38
6094;BME280;19964;42.060;24.700;2023-06-22T04:46:38;97853.16;;;24.47;71.70
6094;BME280;19964;42.060;24.700;2023-06-22T04:49:10;97861.66;;;24.05;72.79
6094;BME280;19964;42.060;24.700;2023-06-22T04:51:38;97862.75;;;24.35;72.44
6094;BME280;19964;42.060;24.700;2023-06-22T04:54:06;97841.56;;;24.35;70.88
6094;BME280;19964;42.060;24.700;2023-06-22T04:56:33;97845.69;;;24.80;71.46
6094;BME280;19964;42.060;24.700;2023-06-22T04:59:31;97856.22;;;25.19;69.31
6094;BME280;19964;42.060;24.700;2023-06-22T05:01:58;97786.47;;;25.02;67.79
6094;BME280;19964;42.060;24.700;2023-06-22T05:04:27;97843.88;;;25.15;69.10
6094;BME280;19964;42.060;24.700;2023-06-22T05:06:57;97837.69;;;25.45;66.88
6094;BME280;19964;42.060;24.700;2023-06-22T05:09:26;97839.56;;;25.70;65.53
6094;BME280;19964;42.060;24.700;2023-06-22T05:11:53;97824.72;;;25.86;64.57
6094;BME280;19964;42.060;24.700;2023-06-22T05:14:20;97827.03;;;26.13;64.50
6094;BME280;19964;42.060;24.700;2023-06-22T05:16:47;97823.56;;;26.59;64.99
6094;BME280;19964;42.060;24.700;2023-06-22T05:19:13;97831.53;;;26.59;63.94
6094;BME280;19964;42.060;24.700;2023-06-22T05:21:44;97826.38;;;26.08;65.39
6094;BME280;19964;42.060;24.700;2023-06-22T05:24:11;97811.16;;;25.53;67.82
6094;BME280;19964;42.060;24.700;2023-06-22T05:26:37;97841.28;;;25.66;66.42
6094;BME280;19964;42.060;24.700;2023-06-22T05:29:04;97837.69;;;25.71;66.46
6094;BME280;19964;42.060;24.700;2023-06-22T05:31:32;97844.53;;;25.97;65.95
6094;BME280;19964;42.060;24.700;2023-06-22T05:33:58;97847.00;;;26.02;67.38
6094;BME280;19964;42.060;24.700;2023-06-22T05:36:26;97761.03;;;25.43;65.49
6094;BME280;19964;42.060;24.700;2023-06-22T05:38:56;97857.97;;;26.09;64.13
6094;BME280;19964;42.060;24.700;2023-06-22T05:41:23;97842.16;;;26.04;63.25
6094;BME280;19964;42.060;24.700;2023-06-22T05:43:50;97863.88;;;26.70;61.85
6094;BME280;19964;42.060;24.700;2023-06-22T05:46:18;97865.34;;;26.88;61.84
6094;BME280;19964;42.060;24.700;2023-06-22T05:48:45;97864.16;;;27.06;60.83
6094;BME280;19964;42.060;24.700;2023-06-22T05:51:12;97868.88;;;27.09;60.08
6094;BME280;19964;42.060;24.700;2023-06-22T05:53:40;97866.38;;;27.33;60.83
6094;BME280;19964;42.060;24.700;2023-06-22T05:56:08;97825.06;;;27.27;59.00
6094;BME280;19964;42.060;24.700;2023-06-22T05:58:35;97853.81;;;27.42;60.31
6094;BME280;19964;42.060;24.700;2023-06-22T06:01:02;97865.91;;;27.02;60.06
6094;BME280;19964;42.060;24.700;2023-06-22T06:03:29;97864.75;;;27.41;59.73
6094;BME280;19964;42.060;24.700;2023-06-22T06:05:55;97774.13;;;27.16;61.15
6094;BME280;19964;42.060;24.700;2023-06-22T06:08:22;97863.88;;;27.90;60.26
6094;BME280;19964;42.060;24.700;2023-06-22T06:10:49;97862.88;;;28.60;60.53
6094;BME280;19964;42.060;24.700;2023-06-22T06:13:19;97869.44;;;28.86;56.94
6094;BME280;19964;42.060;24.700;2023-06-22T06:15:49;97866.53;;;28.91;57.08
6094;BME280;19964;42.060;24.700;2023-06-22T06:18:17;97877.72;;;29.45;57.25
6094;BME280;19964;42.060;24.700;2023-06-22T06:20:43;97873.50;;;29.44;55.69
6094;BME280;19964;42.060;24.700;2023-06-22T06:23:10;97865.09;;;29.06;57.77
6094;BME280;19964;42.060;24.700;2023-06-22T06:25:37;97861.94;;;28.44;55.76
6094;BME280;19964;42.060;24.700;2023-06-22T06:28:04;97823.41;;;27.96;56.05
6094;BME280;19964;42.060;24.700;2023-06-22T06:30:32;97849.81;;;28.46;55.59
6094;BME280;19964;42.060;24.700;2023-06-22T06:32:59;97866.53;;;28.55;55.67
6094;BME280;19964;42.060;24.700;2023-06-22T06:35:26;97852.31;;;29.24;55.38
6094;BME280;19964;42.060;24.700;2023-06-22T06:37:54;97869.88;;;29.00;53.91
6094;BME280;19964;42.060;24.700;2023-06-22T06:40:21;97870.00;;;29.68;55.71
6094;BME280;19964;42.060;24.700;2023-06-22T06:42:48;97874.66;;;29.99;52.54
6094;BME280;19964;42.060;24.700;2023-06-22T07:26:39;97868.66;;;31.99;45.78
6094;BME280;19964;42.060;24.700;2023-06-22T07:29:11;97875.22;;;31.64;46.73
6094;BME280;19964;42.060;24.700;2023-06-22T07:31:37;97868.53;;;31.73;46.36
6094;BME280;19964;42.060;24.700;2023-06-22T07:34:05;97880.97;;;32.23;46.02
6094;BME280;19964;42.060;24.700;2023-06-22T07:36:32;97867.88;;;32.40;46.80
6094;BME280;19964;42.060;24.700;2023-06-22T07:39:00;97881.50;;;31.90;44.53
6094;BME280;19964;42.060;24.700;2023-06-22T07:41:28;97844.25;;;32.04;45.37
6094;BME280;19964;42.060;24.700;2023-06-22T07:43:56;97877.53;;;32.68;44.53
6094;BME280;19964;42.060;24.700;2023-06-22T07:46:23;97879.84;;;32.92;45.76
6094;BME280;19964;42.060;24.700;2023-06-22T07:48:50;97858.56;;;32.80;46.62
6094;BME280;19964;42.060;24.700;2023-06-22T07:51:16;97883.63;;;33.10;40.38
6094;BME280;19964;42.060;24.700;2023-06-22T07:53:43;97877.38;;;33.32;42.20
6094;BME280;19964;42.060;24.700;2023-06-22T07:56:10;97879.75;;;32.62;41.31
6094;BME280;19964;42.060;24.700;2023-06-22T07:58:37;97883.03;;;33.23;42.77
6094;BME280;19964;42.060;24.700;2023-06-22T08:01:06;97875.47;;;33.06;40.20
6094;BME280;19964;42.060;24.700;2023-06-22T08:03:33;97876.81;;;32.93;39.97
6094;BME280;19964;42.060;24.700;2023-06-22T08:06:00;97873.00;;;33.20;41.05
6094;BME280;19964;42.060;24.700;2023-06-22T08:08:27;97883.75;;;33.20;39.28
6094;BME280;19964;42.060;24.700;2023-06-22T08:10:54;97875.53;;;33.66;39.46
6094;BME280;19964;42.060;24.700;2023-06-22T08:13:20;97868.38;;;34.10;43.49
6094;BME280;19964;42.060;24.700;2023-06-22T08:15:47;97865.00;;;34.20;39.52
6094;BME280;19964;42.060;24.700;2023-06-22T08:18:15;97874.69;;;33.58;40.36
6094;BME280;19964;42.060;24.700;2023-06-22T08:20:42;97882.19;;;33.75;39.34
6094;BME280;19964;42.060;24.700;2023-06-22T08:23:09;97875.56;;;33.69;41.10
6094;BME280;19964;42.060;24.700;2023-06-22T08:25:36;97860.63;;;33.72;37.83
6094;BME280;19964;42.060;24.700;2023-06-22T08:28:03;97863.25;;;33.09;37.04
6094;BME280;19964;42.060;24.700;2023-06-22T08:30:30;97856.16;;;33.23;40.02
6094;BME280;19964;42.060;24.700;2023-06-22T08:32:57;97821.81;;;32.84;39.19
6094;BME280;19964;42.060;24.700;2023-06-22T08:35:25;97857.97;;;34.08;38.50
6094;BME280;19964;42.060;24.700;2023-06-22T08:37:52;97857.34;;;34.22;37.96
6094;BME280;19964;42.060;24.700;2023-06-22T08:40:20;97851.47;;;33.47;38.84
6094;BME280;19964;42.060;24.700;2023-06-22T08:42:48;97855.34;;;33.19;39.72
6094;BME280;19964;42.060;24.700;2023-06-22T08:45:16;97850.50;;;33.95;38.46
6094;BME280;19964;42.060;24.700;2023-06-22T08:47:42;97850.81;;;34.63;37.28
6094;BME280;19964;42.060;24.700;2023-06-22T08:50:11;97846.59;;;35.24;34.74
6094;BME280;19964;42.060;24.700;2023-06-22T08:52:40;97853.97;;;33.95;35.15
6094;BME280;19964;42.060;24.700;2023-06-22T08:55:08;97851.47;;;33.47;37.30
6094;BME280;19964;42.060;24.700;2023-06-22T08:57:35;97842.06;;;34.33;36.94
6094;BME280;19964;42.060;24.700;2023-06-22T09:00:06;97852.06;;;34.80;38.49
6094;BME280;19964;42.060;24.700;2023-06-22T09:02:41;97844.38;;;34.78;38.25
6094;BME280;19964;42.060;24.700;2023-06-22T09:05:09;97842.75;;;34.23;36.46
6094;BME280;19964;42.060;24.700;2023-06-22T09:07:36;97853.00;;;33.77;37.13
6094;BME280;19964;42.060;24.700;2023-06-22T09:10:05;97807.41;;;34.28;37.74
6094;BME280;19964;42.060;24.700;2023-06-22T09:12:32;97851.97;;;34.22;37.58
6094;BME280;19964;42.060;24.700;2023-06-22T09:14:59;97846.75;;;34.43;39.15
6094;BME280;19964;42.060;24.700;2023-06-22T09:17:26;97852.78;;;34.70;36.34
6094;BME280;19964;42.060;24.700;2023-06-22T09:19:53;97847.78;;;35.26;34.55
6094;BME280;19964;42.060;24.700;2023-06-22T09:22:20;97846.38;;;34.88;35.00
6094;BME280;19964;42.060;24.700;2023-06-22T09:24:47;97855.63;;;33.70;36.23
6094;BME280;19964;42.060;24.700;2023-06-22T09:27:15;97844.91;;;34.07;34.59
6094;BME280;19964;42.060;24.700;2023-06-22T09:29:42;97839.94;;;34.09;36.64
6094;BME280;19964;42.060;24.700;2023-06-22T09:32:09;97852.09;;;34.36;34.91
6094;BME280;19964;42.060;24.700;2023-06-22T09:34:36;97844.81;;;34.40;35.07
6094;BME280;19964;42.060;24.700;2023-06-22T09:37:03;97846.34;;;34.41;36.71
6094;BME280;19964;42.060;24.700;2023-06-22T09:39:30;97829.94;;;34.53;33.21
6094;BME280;19964;42.060;24.700;2023-06-22T09:41:58;97825.56;;;34.35;34.23
6094;BME280;19964;42.060;24.700;2023-06-22T09:44:26;97837.59;;;34.48;33.37
6094;BME280;19964;42.060;24.700;2023-06-22T09:46:53;97835.19;;;34.86;35.13
6094;BME280;19964;42.060;24.700;2023-06-22T09:49:20;97832.91;;;34.45;33.42
6094;BME280;19964;42.060;24.700;2023-06-22T09:51:47;97825.25;;;34.03;35.33
6094;BME280;19964;42.060;24.700;2023-06-22T09:54:15;97835.84;;;34.26;34.01
6094;BME280;19964;42.060;24.700;2023-06-22T09:56:42;97835.31;;;33.43;35.74
6094;BME280;19964;42.060;24.700;2023-06-22T09:59:08;97825.38;;;33.17;36.42
6094;BME280;19964;42.060;24.700;2023-06-22T10:01:36;97836.47;;;33.16;36.00
6094;BME280;19964;42.060;24.700;2023-06-22T10:04:03;97833.94;;;33.26;35.17
6094;BME280;19964;42.060;24.700;2023-06-22T10:06:30;97834.38;;;33.32;36.38
6094;BME280;19964;42.060;24.700;2023-06-22T10:08:57;97838.09;;;33.50;36.65
6094;BME280;19964;42.060;24.700;2023-06-22T10:11:24;97826.94;;;33.81;36.57
6094;BME280;19964;42.060;24.700;2023-06-22T10:13:54;97824.25;;;33.81;37.43
6094;BME280;19964;42.060;24.700;2023-06-22T10:16:24;97824.63;;;34.17;34.35
6094;BME280;19964;42.060;24.700;2023-06-22T10:18:53;97825.06;;;34.69;34.48
6094;BME280;19964;42.060;24.700;2023-06-22T10:21:20;97820.00;;;34.17;34.79
6094;BME280;19964;42.060;24.700;2023-06-22T10:23:47;97813.69;;;34.43;36.14
6094;BME280;19964;42.060;24.700;2023-06-22T10:26:13;97817.44;;;34.31;35.04
6094;BME280;19964;42.060;24.700;2023-06-22T10:28:40;97809.81;;;34.40;37.33
6094;BME280;19964;42.060;24.700;2023-06-22T10:31:07;97782.38;;;34.24;35.78
6094;BME280;19964;42.060;24.700;2023-06-22T10:33:34;97808.47;;;33.80;35.53
6094;BME280;19964;42.060;24.700;2023-06-22T10:36:02;97814.88;;;33.68;35.87
6094;BME280;19964;42.060;24.700;2023-06-22T10:38:29;97812.94;;;34.46;36.00
6094;BME280;19964;42.060;24.700;2023-06-22T10:40:56;97809.75;;;34.84;35.88
6094;BME280;19964;42.060;24.700;2023-06-22T10:43:22;97808.13;;;35.34;33.00
6094;BME280;19964;42.060;24.700;2023-06-22T10:45:49;97804.41;;;35.70;34.37
6094;BME280;19964;42.060;24.700;2023-06-22T10:48:16;97791.69;;;34.88;33.35
6094;BME280;19964;42.060;24.700;2023-06-22T10:50:43;97787.47;;;34.33;33.14
6094;BME280;19964;42.060;24.700;2023-06-22T10:53:11;97786.66;;;34.29;34.23
6094;BME280;19964;42.060;24.700;2023-06-22T10:55:37;97783.00;;;34.51;34.06
6094;BME280;19964;42.060;24.700;2023-06-22T10:58:04;97777.53;;;34.44;35.27
6094;BME280;19964;42.060;24.700;2023-06-22T11:00:31;97786.47;;;33.71;33.41
6094;BME280;19964;42.060;24.700;2023-06-22T11:02:58;97777.94;;;34.46;33.43
6094;BME280;19964;42.060;24.700;2023-06-22T11:05:24;97766.91;;;35.30;33.25
6094;BME280;19964;42.060;24.700;2023-06-22T11:07:51;97768.56;;;34.80;32.57
6094;BME280;19964;42.060;24.700;2023-06-22T11:10:19;97770.91;;;34.85;33.52
6094;BME280;19964;42.060;24.700;2023-06-22T11:12:46;97774.06;;;34.43;35.36
6094;BME280;19964;42.060;24.700;2023-06-22T11:15:13;97772.47;;;33.91;33.86
6094;BME280;19964;42.060;24.700;2023-06-22T11:17:40;97740.97;;;33.22;34.76
6094;BME280;19964;42.060;24.700;2023-06-22T11:20:07;97771.09;;;33.68;33.85
6094;BME280;19964;42.060;24.700;2023-06-22T11:22:37;97776.28;;;33.50;34.00
6094;BME280;19964;42.060;24.700;2023-06-22T11:25:05;97772.28;;;33.70;34.53
6094;BME280;19964;42.060;24.700;2023-06-22T11:27:33;97737.19;;;33.60;34.08
6094;BME280;19964;42.060;24.700;2023-06-22T11:30:00;97753.25;;;33.93;35.88
6094;BME280;19964;42.060;24.700;2023-06-22T11:32:28;97737.00;;;33.42;35.24
6094;BME280;19964;42.060;24.700;2023-06-22T11:34:54;97773.22;;;33.52;35.00
6094;BME280;19964;42.060;24.700;2023-06-22T11:37:21;97769.25;;;34.16;35.43
6094;BME280;19964;42.060;24.700;2023-06-22T11:39:48;97768.22;;;33.90;32.90
6094;BME280;19964;42.060;24.700;2023-06-22T11:42:15;97770.63;;;34.43;34.20
6094;BME280;19964;42.060;24.700;2023-06-22T11:44:43;97768.22;;;33.90;35.38
6094;BME280;19964;42.060;24.700;2023-06-22T11:47:10;97768.91;;;34.21;35.94
6094;BME280;19964;42.060;24.700;2023-06-22T11:49:37;97767.69;;;33.08;36.12
6094;BME280;19964;42.060;24.700;2023-06-22T11:52:04;97733.69;;;33.22;37.83
6094;BME280;19964;42.060;24.700;2023-06-22T11:54:31;97770.63;;;33.29;34.81
6094;BME280;19964;42.060;24.700;2023-06-22T11:56:57;97770.66;;;33.33;36.47
6094;BME280;19964;42.060;24.700;2023-06-22T11:59:24;97759.88;;;33.29;36.66
6094;BME280;19964;42.060;24.700;2023-06-22T12:01:52;97762.47;;;33.22;36.16
6094;BME280;19964;42.060;24.700;2023-06-22T12:04:19;97758.88;;;33.77;37.08
6094;BME280;19964;42.060;24.700;2023-06-22T12:06:46;97754.50;;;33.62;35.99
6094;BME280;19964;42.060;24.700;2023-06-22T12:09:14;97721.28;;;33.11;37.42
6094;BME280;19964;42.060;24.700;2023-06-22T12:11:40;97748.94;;;32.85;37.40
6094;BME280;19964;42.060;24.700;2023-06-22T12:14:07;97747.63;;;32.72;37.07
6094;BME280;19964;42.060;24.700;2023-06-22T12:16:34;97759.72;;;32.89;37.07
6094;BME280;19964;42.060;24.700;2023-06-22T12:19:02;97756.25;;;32.59;36.24
6094;BME280;19964;42.060;24.700;2023-06-22T12:21:29;97747.59;;;32.46;36.76
6094;BME280;19964;42.060;24.700;2023-06-22T12:23:56;97745.22;;;32.41;39.35
6094;BME280;19964;42.060;24.700;2023-06-22T12:26:22;97735.97;;;32.12;37.74
6094;BME280;19964;42.060;24.700;2023-06-22T12:28:49;97743.41;;;32.00;37.79
6094;BME280;19964;42.060;24.700;2023-06-22T12:31:16;97738.88;;;31.81;37.67
6094;BME280;19964;42.060;24.700;2023-06-22T12:33:43;97734.81;;;32.13;39.51
6094;BME280;19964;42.060;24.700;2023-06-22T12:36:11;97720.44;;;32.25;37.40
6094;BME280;19964;42.060;24.700;2023-06-22T12:38:38;97737.66;;;32.47;38.40
6094;BME280;19964;42.060;24.700;2023-06-22T12:41:05;97735.97;;;32.38;38.58
6094;BME280;19964;42.060;24.700;2023-06-22T12:43:32;97735.56;;;32.36;36.51
6094;BME280;19964;42.060;24.700;2023-06-22T12:45:58;97731.50;;;32.46;37.07
6094;BME280;19964;42.060;24.700;2023-06-22T12:48:25;97718.97;;;32.05;39.55
6094;BME280;19964;42.060;24.700;2023-06-22T12:50:52;97730.16;;;31.88;40.43
6094;BME280;19964;42.060;24.700;2023-06-22T12:53:26;97721.59;;;32.24;37.96
6094;BME280;19964;42.060;24.700;2023-06-22T12:55:53;97719.72;;;31.83;39.33
6094;BME280;19964;42.060;24.700;2023-06-22T12:58:20;97724.94;;;31.95;39.07
6094;BME280;19964;42.060;24.700;2023-06-22T13:00:47;97716.38;;;31.89;40.27
6094;BME280;19964;42.060;24.700;2023-06-22T13:03:13;97712.16;;;31.88;39.71
6094;BME280;19964;42.060;24.700;2023-06-22T13:05:40;97715.44;;;31.78;39.96
6094;BME280;19964;42.060;24.700;2023-06-22T13:08:07;97712.28;;;31.50;39.03
6094;BME280;19964;42.060;24.700;2023-06-22T13:10:36;97712.56;;;31.07;40.55
6094;BME280;19964;42.060;24.700;2023-06-22T13:13:02;97714.66;;;31.36;40.44
6094;BME280;19964;42.060;24.700;2023-06-22T13:15:29;97713.50;;;31.37;43.04
6094;BME280;19964;42.060;24.700;2023-06-22T13:17:56;97704.94;;;31.09;40.80
6094;BME280;19964;42.060;24.700;2023-06-22T13:20:23;97717.19;;;31.29;40.64
6094;BME280;19964;42.060;24.700;2023-06-22T13:22:50;97711.69;;;31.41;41.65
6094;BME280;19964;42.060;24.700;2023-06-22T13:25:16;97703.16;;;31.54;46.96
6094;BME280;19964;42.060;24.700;2023-06-22T13:27:46;97701.13;;;31.10;48.79
6094;BME280;19964;42.060;24.700;2023-06-22T13:30:14;97701.72;;;31.19;43.29
6094;BME280;19964;42.060;24.700;2023-06-22T13:32:41;97691.88;;;31.07;48.61
6094;BME280;19964;42.060;24.700;2023-06-22T13:35:08;97700.66;;;30.85;49.38
6094;BME280;19964;42.060;24.700;2023-06-22T13:37:36;97688.88;;;30.90;51.41
6094;BME280;19964;42.060;24.700;2023-06-22T13:40:04;97694.50;;;30.85;53.37
6094;BME280;19964;42.060;24.700;2023-06-22T13:42:32;97672.22;;;30.81;53.21
6094;BME280;19964;42.060;24.700;2023-06-22T13:45:00;97698.31;;;30.84;53.57